sensor_id;sensor_type;location;lat;lon;timestamp;P1;durP1;ratioP1;P2;durP2;ratioP2
4674;SDS011;2351;50.812;12.872;2023-12-04T00:00:51;26.50;;;14.10;;
4674;SDS011;2351;50.812;12.872;2023-12-04T00:03:23;24.25;;;12.80;;
4674;SDS011;2351;50.812;12.872;2023-12-04T00:05:56;21.92;;;12.52;;
4674;SDS011;2351;50.812;12.872;2023-12-04T00:08:28;24.13;;;12.25;;
4674;SDS011;2351;50.812;12.872;2023-12-04T00:10:59;22.30;;;12.02;;
4674;SDS011;2351;50.812;12.872;2023-12-04T00:13:31;20.17;;;11.13;;
4674;SDS011;2351;50.812;12.872;2023-12-04T00:16:04;20.67;;;11.82;;
4674;SDS011;2351;50.812;12.872;2023-12-04T00:18:36;27.08;;;13.30;;
4674;SDS011;2351;50.812;12.872;2023-12-04T00:21:09;29.02;;;12.30;;
4674;SDS011;2351;50.812;12.872;2023-12-04T00:23:40;20.98;;;10.98;;
4674;SDS011;2351;50.812;12.872;2023-12-04T00:26:12;24.23;;;13.90;;
4674;SDS011;2351;50.812;12.872;2023-12-04T00:28:44;19.75;;;11.55;;
4674;SDS011;2351;50.812;12.872;2023-12-04T00:31:16;23.92;;;12.07;;
4674;SDS011;2351;50.812;12.872;2023-12-04T00:33:47;21.42;;;10.38;;
4674;SDS011;2351;50.812;12.872;2023-12-04T00:36:20;23.05;;;11.13;;
4674;SDS011;2351;50.812;12.872;2023-12-04T00:38:52;19.95;;;10.52;;
4674;SDS011;2351;50.812;12.872;2023-12-04T00:41:24;20.98;;;11.23;;
4674;SDS011;2351;50.812;12.872;2023-12-04T00:43:56;20.77;;;9.63;;
4674;SDS011;2351;50.812;12.872;2023-12-04T00:46:27;18.80;;;8.75;;
4674;SDS011;2351;50.812;12.872;2023-12-04T00:48:59;18.38;;;9.90;;
4674;SDS011;2351;50.812;12.872;2023-12-04T00:51:37;17.02;;;8.95;;
4674;SDS011;2351;50.812;12.872;2023-12-04T00:54:10;18.58;;;9.75;;
4674;SDS011;2351;50.812;12.872;2023-12-04T00:56:41;16.90;;;8.95;;
4674;SDS011;2351;50.812;12.872;2023-12-04T00:59:13;17.23;;;9.73;;
4674;SDS011;2351;50.812;12.872;2023-12-04T01:01:45;16.88;;;8.93;;
4674;SDS011;2351;50.812;12.872;2023-12-04T01:04:17;15.38;;;8.75;;
4674;SDS011;2351;50.812;12.872;2023-12-04T01:06:50;16.65;;;9.02;;
4674;SDS011;2351;50.812;12.872;2023-12-04T01:09:23;17.77;;;9.38;;
4674;SDS011;2351;50.812;12.872;2023-12-04T01:11:54;15.82;;;9.52;;
4674;SDS011;2351;50.812;12.872;2023-12-04T01:14:26;13.05;;;8.10;;
4674;SDS011;2351;50.812;12.872;2023-12-04T01:16:58;13.45;;;8.00;;
4674;SDS011;2351;50.812;12.872;2023-12-04T01:19:30;17.20;;;8.95;;
4674;SDS011;2351;50.812;12.872;2023-12-04T01:22:03;12.00;;;6.25;;
4674;SDS011;2351;50.812;12.872;2023-12-04T01:24:35;15.55;;;8.10;;
4674;SDS011;2351;50.812;12.872;2023-12-04T01:27:07;10.98;;;6.80;;
4674;SDS011;2351;50.812;12.872;2023-12-04T01:29:38;14.15;;;7.60;;
4674;SDS011;2351;50.812;12.872;2023-12-04T01:32:10;14.80;;;8.32;;
4674;SDS011;2351;50.812;12.872;2023-12-04T01:34:42;19.02;;;9.45;;
4674;SDS011;2351;50.812;12.872;2023-12-04T01:37:15;12.82;;;7.65;;
4674;SDS011;2351;50.812;12.872;2023-12-04T01:39:46;16.40;;;8.32;;
4674;SDS011;2351;50.812;12.872;2023-12-04T01:42:18;16.20;;;7.82;;
4674;SDS011;2351;50.812;12.872;2023-12-04T01:44:50;14.23;;;8.48;;
4674;SDS011;2351;50.812;12.872;2023-12-04T01:47:22;14.05;;;8.10;;
4674;SDS011;2351;50.812;12.872;2023-12-04T01:49:53;12.52;;;8.40;;
4674;SDS011;2351;50.812;12.872;2023-12-04T01:52:27;12.82;;;7.35;;
4674;SDS011;2351;50.812;12.872;2023-12-04T01:54:58;14.25;;;7.82;;
4674;SDS011;2351;50.812;12.872;2023-12-04T01:57:30;13.00;;;7.47;;
4674;SDS011;2351;50.812;12.872;2023-12-04T02:00:02;13.32;;;7.22;;
4674;SDS011;2351;50.812;12.872;2023-12-04T02:02:35;13.98;;;7.65;;
4674;SDS011;2351;50.812;12.872;2023-12-04T02:05:07;13.43;;;7.63;;
4674;SDS011;2351;50.812;12.872;2023-12-04T02:07:41;11.35;;;6.20;;
4674;SDS011;2351;50.812;12.872;2023-12-04T02:10:13;10.68;;;6.38;;
4674;SDS011;2351;50.812;12.872;2023-12-04T02:12:45;8.98;;;6.35;;
4674;SDS011;2351;50.812;12.872;2023-12-04T02:15:16;11.73;;;7.68;;
4674;SDS011;2351;50.812;12.872;2023-12-04T02:17:48;11.35;;;6.65;;
4674;SDS011;2351;50.812;12.872;2023-12-04T02:20:21;9.68;;;6.55;;
4674;SDS011;2351;50.812;12.872;2023-12-04T02:23:03;11.27;;;6.50;;
4674;SDS011;2351;50.812;12.872;2023-12-04T02:25:36;12.13;;;6.50;;
4674;SDS011;2351;50.812;12.872;2023-12-04T02:28:09;15.60;;;7.80;;
4674;SDS011;2351;50.812;12.872;2023-12-04T02:30:45;12.57;;;7.47;;
4674;SDS011;2351;50.812;12.872;2023-12-04T02:33:20;13.77;;;7.88;;
4674;SDS011;2351;50.812;12.872;2023-12-04T02:35:55;10.55;;;5.50;;
4674;SDS011;2351;50.812;12.872;2023-12-04T02:38:28;9.65;;;6.28;;
4674;SDS011;2351;50.812;12.872;2023-12-04T02:41:02;10.60;;;6.85;;
4674;SDS011;2351;50.812;12.872;2023-12-04T02:43:34;12.02;;;7.30;;
4674;SDS011;2351;50.812;12.872;2023-12-04T02:46:06;20.58;;;8.23;;
4674;SDS011;2351;50.812;12.872;2023-12-04T02:48:38;11.95;;;7.75;;
4674;SDS011;2351;50.812;12.872;2023-12-04T02:51:09;13.98;;;8.07;;
4674;SDS011;2351;50.812;12.872;2023-12-04T02:53:41;12.68;;;7.70;;
4674;SDS011;2351;50.812;12.872;2023-12-04T02:56:15;16.38;;;9.00;;
4674;SDS011;2351;50.812;12.872;2023-12-04T02:58:46;11.98;;;7.35;;
4674;SDS011;2351;50.812;12.872;2023-12-04T03:01:18;14.65;;;7.45;;
4674;SDS011;2351;50.812;12.872;2023-12-04T03:03:49;17.45;;;8.60;;
4674;SDS011;2351;50.812;12.872;2023-12-04T03:06:21;12.00;;;7.30;;
4674;SDS011;2351;50.812;12.872;2023-12-04T03:08:53;14.55;;;7.53;;
4674;SDS011;2351;50.812;12.872;2023-12-04T03:11:26;17.90;;;7.60;;
4674;SDS011;2351;50.812;12.872;2023-12-04T03:13:59;16.90;;;6.68;;
4674;SDS011;2351;50.812;12.872;2023-12-04T03:16:31;12.48;;;7.75;;
4674;SDS011;2351;50.812;12.872;2023-12-04T03:19:03;13.20;;;7.10;;
4674;SDS011;2351;50.812;12.872;2023-12-04T03:21:35;13.13;;;7.20;;
4674;SDS011;2351;50.812;12.872;2023-12-04T03:24:07;13.25;;;8.20;;
4674;SDS011;2351;50.812;12.872;2023-12-04T03:26:40;19.75;;;8.27;;
4674;SDS011;2351;50.812;12.872;2023-12-04T03:29:12;16.92;;;8.15;;
4674;SDS011;2351;50.812;12.872;2023-12-04T03:31:43;13.73;;;7.70;;
4674;SDS011;2351;50.812;12.872;2023-12-04T03:34:15;13.02;;;6.72;;
4674;SDS011;2351;50.812;12.872;2023-12-04T03:36:47;11.55;;;7.18;;
4674;SDS011;2351;50.812;12.872;2023-12-04T03:39:18;25.40;;;8.25;;
4674;SDS011;2351;50.812;12.872;2023-12-04T03:41:52;18.08;;;7.85;;
4674;SDS011;2351;50.812;12.872;2023-12-04T03:44:23;16.70;;;6.93;;
4674;SDS011;2351;50.812;12.872;2023-12-04T03:46:56;15.18;;;7.85;;
4674;SDS011;2351;50.812;12.872;2023-12-04T03:49:28;11.35;;;6.72;;
4674;SDS011;2351;50.812;12.872;2023-12-04T03:51:59;16.67;;;6.43;;
4674;SDS011;2351;50.812;12.872;2023-12-04T03:54:31;13.90;;;6.80;;
4674;SDS011;2351;50.812;12.872;2023-12-04T03:57:04;6.93;;;4.35;;
4674;SDS011;2351;50.812;12.872;2023-12-04T03:59:36;8.65;;;5.50;;
4674;SDS011;2351;50.812;12.872;2023-12-04T04:02:08;9.13;;;4.57;;
4674;SDS011;2351;50.812;12.872;2023-12-04T04:04:39;8.68;;;5.57;;
4674;SDS011;2351;50.812;12.872;2023-12-04T04:07:11;11.32;;;6.25;;
4674;SDS011;2351;50.812;12.872;2023-12-04T04:09:43;11.13;;;5.65;;
4674;SDS011;2351;50.812;12.872;2023-12-04T04:12:16;10.60;;;6.05;;
4674;SDS011;2351;50.812;12.872;2023-12-04T04:14:48;11.73;;;6.28;;
4674;SDS011;2351;50.812;12.872;2023-12-04T04:17:19;14.35;;;6.40;;
4674;SDS011;2351;50.812;12.872;2023-12-04T04:19:51;13.20;;;7.03;;
4674;SDS011;2351;50.812;12.872;2023-12-04T04:22:23;14.98;;;6.97;;
4674;SDS011;2351;50.812;12.872;2023-12-04T04:24:55;11.52;;;6.88;;
4674;SDS011;2351;50.812;12.872;2023-12-04T04:27:28;14.98;;;6.57;;
4674;SDS011;2351;50.812;12.872;2023-12-04T04:30:00;14.57;;;7.50;;
4674;SDS011;2351;50.812;12.872;2023-12-04T04:32:32;15.43;;;7.10;;
4674;SDS011;2351;50.812;12.872;2023-12-04T04:35:04;19.77;;;8.57;;
4674;SDS011;2351;50.812;12.872;2023-12-04T04:37:36;15.05;;;8.00;;
4674;SDS011;2351;50.812;12.872;2023-12-04T04:40:08;22.60;;;8.48;;
4674;SDS011;2351;50.812;12.872;2023-12-04T04:42:41;18.40;;;9.27;;
4674;SDS011;2351;50.812;12.872;2023-12-04T04:45:13;15.30;;;8.25;;
4674;SDS011;2351;50.812;12.872;2023-12-04T04:47:44;18.30;;;8.70;;
4674;SDS011;2351;50.812;12.872;2023-12-04T04:50:16;16.17;;;8.18;;
4674;SDS011;2351;50.812;12.872;2023-12-04T04:52:48;15.75;;;8.02;;
4674;SDS011;2351;50.812;12.872;2023-12-04T04:55:19;21.33;;;8.65;;
4674;SDS011;2351;50.812;12.872;2023-12-04T04:57:52;17.50;;;8.32;;
4674;SDS011;2351;50.812;12.872;2023-12-04T05:00:24;16.50;;;8.48;;
4674;SDS011;2351;50.812;12.872;2023-12-04T05:02:56;17.55;;;8.25;;
4674;SDS011;2351;50.812;12.872;2023-12-04T05:05:28;14.95;;;7.72;;
4674;SDS011;2351;50.812;12.872;2023-12-04T05:07:59;17.98;;;8.50;;
4674;SDS011;2351;50.812;12.872;2023-12-04T05:10:31;16.23;;;8.23;;
4674;SDS011;2351;50.812;12.872;2023-12-04T05:13:04;16.65;;;8.30;;
4674;SDS011;2351;50.812;12.872;2023-12-04T05:15:36;14.77;;;7.85;;
4674;SDS011;2351;50.812;12.872;2023-12-04T05:18:08;14.30;;;8.02;;
4674;SDS011;2351;50.812;12.872;2023-12-04T05:20:39;19.08;;;8.93;;
4674;SDS011;2351;50.812;12.872;2023-12-04T05:23:11;16.15;;;7.75;;
4674;SDS011;2351;50.812;12.872;2023-12-04T05:25:43;18.65;;;9.65;;
4674;SDS011;2351;50.812;12.872;2023-12-04T05:28:16;16.20;;;9.07;;
4674;SDS011;2351;50.812;12.872;2023-12-04T05:30:48;21.38;;;8.68;;
4674;SDS011;2351;50.812;12.872;2023-12-04T05:33:19;17.95;;;7.65;;
4674;SDS011;2351;50.812;12.872;2023-12-04T05:35:51;22.80;;;9.30;;
4674;SDS011;2351;50.812;12.872;2023-12-04T05:38:23;14.88;;;8.30;;
4674;SDS011;2351;50.812;12.872;2023-12-04T05:40:55;15.65;;;8.52;;
4674;SDS011;2351;50.812;12.872;2023-12-04T05:43:28;18.33;;;8.05;;
4674;SDS011;2351;50.812;12.872;2023-12-04T05:46:00;11.93;;;7.28;;
4674;SDS011;2351;50.812;12.872;2023-12-04T05:48:32;17.48;;;7.95;;
4674;SDS011;2351;50.812;12.872;2023-12-04T05:51:04;10.68;;;6.78;;
4674;SDS011;2351;50.812;12.872;2023-12-04T05:53:36;11.63;;;6.90;;
4674;SDS011;2351;50.812;12.872;2023-12-04T05:56:08;17.85;;;9.20;;
4674;SDS011;2351;50.812;12.872;2023-12-04T05:58:42;14.32;;;8.30;;
4674;SDS011;2351;50.812;12.872;2023-12-04T06:01:14;13.32;;;7.63;;
4674;SDS011;2351;50.812;12.872;2023-12-04T06:03:46;21.13;;;7.82;;
4674;SDS011;2351;50.812;12.872;2023-12-04T06:06:17;14.15;;;7.45;;
4674;SDS011;2351;50.812;12.872;2023-12-04T06:08:49;15.73;;;7.20;;
4674;SDS011;2351;50.812;12.872;2023-12-04T06:11:21;21.50;;;6.88;;
4674;SDS011;2351;50.812;12.872;2023-12-04T06:13:54;13.57;;;8.30;;
4674;SDS011;2351;50.812;12.872;2023-12-04T06:16:26;14.98;;;7.00;;
4674;SDS011;2351;50.812;12.872;2023-12-04T06:18:57;10.20;;;6.00;;
4674;SDS011;2351;50.812;12.872;2023-12-04T06:21:29;13.50;;;6.85;;
4674;SDS011;2351;50.812;12.872;2023-12-04T06:24:01;12.20;;;6.93;;
4674;SDS011;2351;50.812;12.872;2023-12-04T06:26:33;12.38;;;5.70;;
4674;SDS011;2351;50.812;12.872;2023-12-04T06:29:09;12.40;;;6.22;;
4674;SDS011;2351;50.812;12.872;2023-12-04T06:31:41;11.35;;;5.78;;
4674;SDS011;2351;50.812;12.872;2023-12-04T06:34:14;13.05;;;6.93;;
4674;SDS011;2351;50.812;12.872;2023-12-04T06:36:46;13.25;;;7.70;;
4674;SDS011;2351;50.812;12.872;2023-12-04T06:39:18;13.45;;;7.60;;
4674;SDS011;2351;50.812;12.872;2023-12-04T06:41:50;12.60;;;7.53;;
4674;SDS011;2351;50.812;12.872;2023-12-04T06:44:24;17.00;;;8.50;;
4674;SDS011;2351;50.812;12.872;2023-12-04T06:46:56;16.10;;;7.90;;
4674;SDS011;2351;50.812;12.872;2023-12-04T06:49:32;14.05;;;7.78;;
4674;SDS011;2351;50.812;12.872;2023-12-04T06:52:04;13.80;;;7.63;;
4674;SDS011;2351;50.812;12.872;2023-12-04T06:54:36;14.45;;;8.38;;
4674;SDS011;2351;50.812;12.872;2023-12-04T06:57:08;19.55;;;8.35;;
4674;SDS011;2351;50.812;12.872;2023-12-04T06:59:41;18.13;;;7.05;;
4674;SDS011;2351;50.812;12.872;2023-12-04T07:02:13;20.42;;;10.27;;
4674;SDS011;2351;50.812;12.872;2023-12-04T07:04:44;16.42;;;8.93;;
4674;SDS011;2351;50.812;12.872;2023-12-04T07:07:17;21.05;;;8.65;;
4674;SDS011;2351;50.812;12.872;2023-12-04T07:09:49;24.63;;;12.18;;
4674;SDS011;2351;50.812;12.872;2023-12-04T07:12:20;29.50;;;10.65;;
4674;SDS011;2351;50.812;12.872;2023-12-04T07:14:53;18.58;;;9.00;;
4674;SDS011;2351;50.812;12.872;2023-12-04T07:17:25;26.20;;;11.63;;
4674;SDS011;2351;50.812;12.872;2023-12-04T07:19:57;24.55;;;11.18;;
4674;SDS011;2351;50.812;12.872;2023-12-04T07:22:29;21.77;;;10.73;;
4674;SDS011;2351;50.812;12.872;2023-12-04T07:25:01;18.63;;;9.65;;
4674;SDS011;2351;50.812;12.872;2023-12-04T07:27:33;17.75;;;9.60;;
4674;SDS011;2351;50.812;12.872;2023-12-04T07:30:07;13.18;;;6.70;;
4674;SDS011;2351;50.812;12.872;2023-12-04T07:32:39;5.38;;;4.25;;
4674;SDS011;2351;50.812;12.872;2023-12-04T07:35:11;6.05;;;3.53;;
4674;SDS011;2351;50.812;12.872;2023-12-04T07:37:43;4.05;;;2.80;;
4674;SDS011;2351;50.812;12.872;2023-12-04T07:40:14;3.95;;;2.97;;
4674;SDS011;2351;50.812;12.872;2023-12-04T07:42:46;6.22;;;3.38;;
4674;SDS011;2351;50.812;12.872;2023-12-04T07:45:19;5.10;;;3.53;;
4674;SDS011;2351;50.812;12.872;2023-12-04T07:47:51;3.25;;;2.45;;
4674;SDS011;2351;50.812;12.872;2023-12-04T07:50:23;4.50;;;2.83;;
4674;SDS011;2351;50.812;12.872;2023-12-04T07:52:55;4.40;;;2.90;;
4674;SDS011;2351;50.812;12.872;2023-12-04T07:55:27;3.63;;;2.60;;
4674;SDS011;2351;50.812;12.872;2023-12-04T07:57:58;3.88;;;3.05;;
4674;SDS011;2351;50.812;12.872;2023-12-04T08:00:31;5.47;;;3.17;;
4674;SDS011;2351;50.812;12.872;2023-12-04T08:03:03;2.73;;;2.43;;
4674;SDS011;2351;50.812;12.872;2023-12-04T08:05:35;3.50;;;2.80;;
4674;SDS011;2351;50.812;12.872;2023-12-04T08:08:07;3.97;;;2.20;;
4674;SDS011;2351;50.812;12.872;2023-12-04T08:10:38;3.47;;;2.10;;
4674;SDS011;2351;50.812;12.872;2023-12-04T08:13:10;5.03;;;3.50;;
4674;SDS011;2351;50.812;12.872;2023-12-04T08:15:43;3.30;;;2.00;;
4674;SDS011;2351;50.812;12.872;2023-12-04T08:18:15;5.78;;;2.35;;
4674;SDS011;2351;50.812;12.872;2023-12-04T08:20:47;2.90;;;2.27;;
4674;SDS011;2351;50.812;12.872;2023-12-04T08:23:18;2.80;;;2.13;;
4674;SDS011;2351;50.812;12.872;2023-12-04T08:25:50;2.60;;;2.40;;
4674;SDS011;2351;50.812;12.872;2023-12-04T08:28:22;2.90;;;2.07;;
4674;SDS011;2351;50.812;12.872;2023-12-04T08:30:55;3.23;;;2.53;;
4674;SDS011;2351;50.812;12.872;2023-12-04T08:33:26;2.80;;;2.23;;
4674;SDS011;2351;50.812;12.872;2023-12-04T08:35:58;3.07;;;1.80;;
4674;SDS011;2351;50.812;12.872;2023-12-04T08:38:30;3.03;;;2.27;;
4674;SDS011;2351;50.812;12.872;2023-12-04T08:41:03;1.87;;;1.77;;
4674;SDS011;2351;50.812;12.872;2023-12-04T08:43:35;3.40;;;2.10;;
4674;SDS011;2351;50.812;12.872;2023-12-04T08:46:08;2.87;;;1.90;;
4674;SDS011;2351;50.812;12.872;2023-12-04T08:48:43;1.60;;;1.50;;
4674;SDS011;2351;50.812;12.872;2023-12-04T08:51:15;2.03;;;1.83;;
4674;SDS011;2351;50.812;12.872;2023-12-04T08:53:47;2.40;;;2.20;;
4674;SDS011;2351;50.812;12.872;2023-12-04T08:56:19;2.20;;;2.00;;
4674;SDS011;2351;50.812;12.872;2023-12-04T08:58:51;3.63;;;2.43;;
4674;SDS011;2351;50.812;12.872;2023-12-04T09:01:24;1.90;;;1.27;;
4674;SDS011;2351;50.812;12.872;2023-12-04T09:03:55;5.00;;;1.73;;
4674;SDS011;2351;50.812;12.872;2023-12-04T09:06:27;3.30;;;2.17;;
4674;SDS011;2351;50.812;12.872;2023-12-04T09:08:59;2.20;;;2.00;;
4674;SDS011;2351;50.812;12.872;2023-12-04T09:11:30;4.30;;;2.50;;
4674;SDS011;2351;50.812;12.872;2023-12-04T09:14:02;2.67;;;2.30;;
4674;SDS011;2351;50.812;12.872;2023-12-04T09:16:35;3.60;;;2.23;;
4674;SDS011;2351;50.812;12.872;2023-12-04T09:19:07;4.30;;;2.60;;
4674;SDS011;2351;50.812;12.872;2023-12-04T09:21:39;2.73;;;1.90;;
4674;SDS011;2351;50.812;12.872;2023-12-04T09:24:10;3.53;;;3.10;;
4674;SDS011;2351;50.812;12.872;2023-12-04T09:26:43;3.07;;;2.00;;
4674;SDS011;2351;50.812;12.872;2023-12-04T09:29:15;2.47;;;1.60;;
4674;SDS011;2351;50.812;12.872;2023-12-04T09:31:49;3.33;;;1.80;;
4674;SDS011;2351;50.812;12.872;2023-12-04T09:34:21;1.93;;;1.60;;
4674;SDS011;2351;50.812;12.872;2023-12-04T09:36:53;4.07;;;2.20;;
4674;SDS011;2351;50.812;12.872;2023-12-04T09:39:24;3.17;;;2.20;;
4674;SDS011;2351;50.812;12.872;2023-12-04T09:41:58;2.30;;;2.10;;
4674;SDS011;2351;50.812;12.872;2023-12-04T09:44:33;5.13;;;1.60;;
4674;SDS011;2351;50.812;12.872;2023-12-04T09:47:09;4.00;;;2.10;;
4674;SDS011;2351;50.812;12.872;2023-12-04T09:49:42;2.47;;;1.90;;
4674;SDS011;2351;50.812;12.872;2023-12-04T09:52:15;2.50;;;1.70;;
4674;SDS011;2351;50.812;12.872;2023-12-04T09:54:47;4.40;;;2.03;;
4674;SDS011;2351;50.812;12.872;2023-12-04T09:57:19;1.93;;;1.70;;
4674;SDS011;2351;50.812;12.872;2023-12-04T09:59:54;2.30;;;2.10;;
4674;SDS011;2351;50.812;12.872;2023-12-04T10:02:28;2.60;;;2.00;;
4674;SDS011;2351;50.812;12.872;2023-12-04T10:05:00;2.10;;;1.90;;
4674;SDS011;2351;50.812;12.872;2023-12-04T10:07:35;4.03;;;2.07;;
4674;SDS011;2351;50.812;12.872;2023-12-04T10:10:07;3.90;;;2.00;;
4674;SDS011;2351;50.812;12.872;2023-12-04T10:12:39;3.30;;;2.73;;
4674;SDS011;2351;50.812;12.872;2023-12-04T10:15:12;5.50;;;2.50;;
4674;SDS011;2351;50.812;12.872;2023-12-04T10:17:45;4.03;;;2.63;;
4674;SDS011;2351;50.812;12.872;2023-12-04T10:20:17;5.60;;;2.30;;
4674;SDS011;2351;50.812;12.872;2023-12-04T10:22:53;2.60;;;2.03;;
4674;SDS011;2351;50.812;12.872;2023-12-04T10:25:26;2.70;;;2.40;;
4674;SDS011;2351;50.812;12.872;2023-12-04T10:28:07;2.23;;;2.10;;
4674;SDS011;2351;50.812;12.872;2023-12-04T10:30:40;3.90;;;2.17;;
4674;SDS011;2351;50.812;12.872;2023-12-04T10:33:13;3.20;;;2.10;;
4674;SDS011;2351;50.812;12.872;2023-12-04T10:35:45;3.60;;;2.50;;
4674;SDS011;2351;50.812;12.872;2023-12-04T10:38:17;4.27;;;2.30;;
4674;SDS011;2351;50.812;12.872;2023-12-04T10:40:50;2.73;;;2.40;;
4674;SDS011;2351;50.812;12.872;2023-12-04T10:43:21;2.87;;;1.90;;
4674;SDS011;2351;50.812;12.872;2023-12-04T10:45:53;2.33;;;2.00;;
4674;SDS011;2351;50.812;12.872;2023-12-04T10:48:27;3.00;;;2.27;;
4674;SDS011;2351;50.812;12.872;2023-12-04T10:50:59;2.30;;;2.07;;
4674;SDS011;2351;50.812;12.872;2023-12-04T10:53:31;6.27;;;2.93;;
4674;SDS011;2351;50.812;12.872;2023-12-04T10:56:03;4.90;;;2.90;;
4674;SDS011;2351;50.812;12.872;2023-12-04T10:58:37;4.63;;;2.30;;
4674;SDS011;2351;50.812;12.872;2023-12-04T11:01:12;3.23;;;2.30;;
4674;SDS011;2351;50.812;12.872;2023-12-04T11:03:47;2.63;;;2.20;;
4674;SDS011;2351;50.812;12.872;2023-12-04T11:06:21;2.37;;;2.10;;
4674;SDS011;2351;50.812;12.872;2023-12-04T11:08:55;2.67;;;2.03;;
4674;SDS011;2351;50.812;12.872;2023-12-04T11:11:30;4.30;;;3.30;;
4674;SDS011;2351;50.812;12.872;2023-12-04T11:14:05;8.60;;;2.43;;
4674;SDS011;2351;50.812;12.872;2023-12-04T11:16:42;2.40;;;2.20;;
4674;SDS011;2351;50.812;12.872;2023-12-04T11:19:20;2.80;;;2.47;;
4674;SDS011;2351;50.812;12.872;2023-12-04T11:21:59;2.83;;;2.43;;
4674;SDS011;2351;50.812;12.872;2023-12-04T11:24:31;5.77;;;2.53;;
4674;SDS011;2351;50.812;12.872;2023-12-04T11:27:04;3.63;;;2.83;;
4674;SDS011;2351;50.812;12.872;2023-12-04T11:29:36;3.67;;;2.60;;
4674;SDS011;2351;50.812;12.872;2023-12-04T11:32:12;4.13;;;2.87;;
4674;SDS011;2351;50.812;12.872;2023-12-04T11:34:50;7.13;;;2.70;;
4674;SDS011;2351;50.812;12.872;2023-12-04T11:37:26;2.50;;;2.07;;
4674;SDS011;2351;50.812;12.872;2023-12-04T11:39:58;7.77;;;3.80;;
4674;SDS011;2351;50.812;12.872;2023-12-04T11:42:34;5.40;;;2.40;;
4674;SDS011;2351;50.812;12.872;2023-12-04T11:45:09;3.87;;;2.80;;
4674;SDS011;2351;50.812;12.872;2023-12-04T11:47:51;6.20;;;2.50;;
4674;SDS011;2351;50.812;12.872;2023-12-04T11:50:27;5.43;;;3.30;;
4674;SDS011;2351;50.812;12.872;2023-12-04T11:53:00;4.80;;;2.67;;
4674;SDS011;2351;50.812;12.872;2023-12-04T11:55:34;4.20;;;2.60;;
4674;SDS011;2351;50.812;12.872;2023-12-04T11:58:08;5.47;;;3.03;;
4674;SDS011;2351;50.812;12.872;2023-12-04T12:00:41;3.07;;;1.93;;
4674;SDS011;2351;50.812;12.872;2023-12-04T12:03:14;3.83;;;2.77;;
4674;SDS011;2351;50.812;12.872;2023-12-04T12:05:47;2.17;;;1.97;;
4674;SDS011;2351;50.812;12.872;2023-12-04T12:08:20;3.93;;;2.47;;
4674;SDS011;2351;50.812;12.872;2023-12-04T12:10:54;4.10;;;3.00;;
4674;SDS011;2351;50.812;12.872;2023-12-04T12:13:27;4.60;;;2.40;;
4674;SDS011;2351;50.812;12.872;2023-12-04T12:15:59;4.00;;;2.27;;
4674;SDS011;2351;50.812;12.872;2023-12-04T12:18:34;6.97;;;2.20;;
4674;SDS011;2351;50.812;12.872;2023-12-04T12:21:07;2.93;;;2.03;;
4674;SDS011;2351;50.812;12.872;2023-12-04T12:23:39;2.17;;;1.97;;
4674;SDS011;2351;50.812;12.872;2023-12-04T12:26:11;1.63;;;1.53;;
4674;SDS011;2351;50.812;12.872;2023-12-04T12:28:43;2.33;;;2.03;;
4674;SDS011;2351;50.812;12.872;2023-12-04T12:31:16;7.33;;;2.17;;
4674;SDS011;2351;50.812;12.872;2023-12-04T12:33:48;2.00;;;1.70;;
4674;SDS011;2351;50.812;12.872;2023-12-04T12:36:22;1.93;;;1.70;;
4674;SDS011;2351;50.812;12.872;2023-12-04T12:38:54;1.43;;;1.10;;
4674;SDS011;2351;50.812;12.872;2023-12-04T12:41:26;1.70;;;1.40;;
4674;SDS011;2351;50.812;12.872;2023-12-04T12:43:58;2.57;;;1.50;;
4674;SDS011;2351;50.812;12.872;2023-12-04T12:46:31;4.80;;;1.60;;
4674;SDS011;2351;50.812;12.872;2023-12-04T12:49:04;2.40;;;1.73;;
4674;SDS011;2351;50.812;12.872;2023-12-04T12:51:38;1.47;;;1.30;;
4674;SDS011;2351;50.812;12.872;2023-12-04T12:54:12;1.30;;;1.20;;
4674;SDS011;2351;50.812;12.872;2023-12-04T12:56:44;4.37;;;2.17;;
4674;SDS011;2351;50.812;12.872;2023-12-04T12:59:16;3.33;;;2.13;;
4674;SDS011;2351;50.812;12.872;2023-12-04T13:01:48;5.03;;;3.13;;
4674;SDS011;2351;50.812;12.872;2023-12-04T13:04:20;3.97;;;3.13;;
4674;SDS011;2351;50.812;12.872;2023-12-04T13:06:53;6.83;;;3.03;;
4674;SDS011;2351;50.812;12.872;2023-12-04T13:09:25;4.90;;;2.70;;
4674;SDS011;2351;50.812;12.872;2023-12-04T13:11:57;3.60;;;1.90;;
4674;SDS011;2351;50.812;12.872;2023-12-04T13:14:29;2.47;;;1.83;;
4674;SDS011;2351;50.812;12.872;2023-12-04T13:17:01;5.20;;;2.20;;
4674;SDS011;2351;50.812;12.872;2023-12-04T13:19:33;2.47;;;2.13;;
4674;SDS011;2351;50.812;12.872;2023-12-04T13:22:07;4.60;;;2.53;;
4674;SDS011;2351;50.812;12.872;2023-12-04T13:24:39;3.30;;;2.40;;
4674;SDS011;2351;50.812;12.872;2023-12-04T13:27:11;3.90;;;2.83;;
4674;SDS011;2351;50.812;12.872;2023-12-04T13:29:44;3.57;;;2.07;;
4674;SDS011;2351;50.812;12.872;2023-12-04T13:32:19;3.43;;;2.10;;
4674;SDS011;2351;50.812;12.872;2023-12-04T13:34:52;2.00;;;1.87;;
4674;SDS011;2351;50.812;12.872;2023-12-04T13:37:26;14.03;;;2.40;;
4674;SDS011;2351;50.812;12.872;2023-12-04T13:39:58;2.70;;;2.17;;
4674;SDS011;2351;50.812;12.872;2023-12-04T13:42:36;8.63;;;2.47;;
4674;SDS011;2351;50.812;12.872;2023-12-04T13:45:25;2.73;;;2.07;;
4674;SDS011;2351;50.812;12.872;2023-12-04T13:47:57;4.20;;;2.70;;
4674;SDS011;2351;50.812;12.872;2023-12-04T13:50:29;5.93;;;2.23;;
4674;SDS011;2351;50.812;12.872;2023-12-04T13:53:02;2.30;;;2.10;;
4674;SDS011;2351;50.812;12.872;2023-12-04T13:55:35;3.87;;;2.97;;
4674;SDS011;2351;50.812;12.872;2023-12-04T13:58:18;3.20;;;1.70;;
4674;SDS011;2351;50.812;12.872;2023-12-04T14:01:03;2.80;;;2.20;;
4674;SDS011;2351;50.812;12.872;2023-12-04T14:03:44;5.90;;;2.60;;
4674;SDS011;2351;50.812;12.872;2023-12-04T14:06:17;2.17;;;1.73;;
4674;SDS011;2351;50.812;12.872;2023-12-04T14:08:50;8.30;;;2.47;;
4674;SDS011;2351;50.812;12.872;2023-12-04T14:11:22;7.00;;;3.03;;
4674;SDS011;2351;50.812;12.872;2023-12-04T14:13:54;5.50;;;2.50;;
4674;SDS011;2351;50.812;12.872;2023-12-04T14:16:26;2.70;;;1.80;;
4674;SDS011;2351;50.812;12.872;2023-12-04T14:18:58;3.73;;;2.00;;
4674;SDS011;2351;50.812;12.872;2023-12-04T14:21:30;5.93;;;2.13;;
4674;SDS011;2351;50.812;12.872;2023-12-04T14:24:04;4.90;;;2.27;;
4674;SDS011;2351;50.812;12.872;2023-12-04T14:26:36;5.83;;;2.87;;
4674;SDS011;2351;50.812;12.872;2023-12-04T14:29:08;10.70;;;3.23;;
4674;SDS011;2351;50.812;12.872;2023-12-04T14:31:39;3.03;;;2.30;;
4674;SDS011;2351;50.812;12.872;2023-12-04T14:34:11;3.03;;;2.30;;
4674;SDS011;2351;50.812;12.872;2023-12-04T14:36:43;6.47;;;3.20;;
4674;SDS011;2351;50.812;12.872;2023-12-04T14:39:16;4.07;;;2.70;;
4674;SDS011;2351;50.812;12.872;2023-12-04T14:41:49;5.90;;;3.10;;
4674;SDS011;2351;50.812;12.872;2023-12-04T14:44:21;3.87;;;2.83;;
4674;SDS011;2351;50.812;12.872;2023-12-04T14:46:52;5.23;;;3.60;;
4674;SDS011;2351;50.812;12.872;2023-12-04T14:49:24;4.07;;;3.03;;
4674;SDS011;2351;50.812;12.872;2023-12-04T14:51:57;6.40;;;3.63;;
4674;SDS011;2351;50.812;12.872;2023-12-04T14:54:32;9.13;;;5.53;;
4674;SDS011;2351;50.812;12.872;2023-12-04T14:57:21;59.93;;;29.23;;
4674;SDS011;2351;50.812;12.872;2023-12-04T15:00:24;8.43;;;5.40;;
4674;SDS011;2351;50.812;12.872;2023-12-04T15:03:19;5.40;;;3.40;;
4674;SDS011;2351;50.812;12.872;2023-12-04T15:06:27;11.83;;;4.00;;
4674;SDS011;2351;50.812;12.872;2023-12-04T15:09:24;3.93;;;3.20;;
4674;SDS011;2351;50.812;12.872;2023-12-04T15:12:11;6.30;;;3.63;;
4674;SDS011;2351;50.812;12.872;2023-12-04T15:14:57;5.33;;;3.47;;
4674;SDS011;2351;50.812;12.872;2023-12-04T15:17:43;7.03;;;4.43;;
4674;SDS011;2351;50.812;12.872;2023-12-04T15:20:20;6.37;;;3.80;;
4674;SDS011;2351;50.812;12.872;2023-12-04T15:23:03;5.70;;;3.13;;
4674;SDS011;2351;50.812;12.872;2023-12-04T15:25:35;6.37;;;3.83;;
4674;SDS011;2351;50.812;12.872;2023-12-04T15:28:08;6.33;;;4.00;;